• Join FlightAware (Why Join?)
  • Login
  • US Flag 
01:48PM EST


 

Airport Tracker/Info


-or-


 

Live Flight TrackerFlight Track Log ✈ N9305N ✈ 16-Jan-2014 ✈ KORL - KGNV

Flight Track Log - Related Links

Times and Time Zones

All times are in EST time to prevent confusion due to time zone crossing. See the N9305N flight status page for this flight to view local times or setup timezone preferences in your user account.

Time Position Orientation Groundspeed Altitude Reporting Facility
EST Latitude Longitude Course Direction KTS MPH feet Rate Location/Type
08:44AM 28.5500 -81.3167 360° North 92 106 400  Level Orlando TRACON
08:45AM 28.5500 -81.3167 41° Northeast 89 102 500 780 Climbing Orlando TRACON
08:46AM 28.5667 -81.3000 41° Northeast 82 94 1,300 720 Climbing Orlando TRACON
08:47AM 28.5667 -81.2667 90° East 90 104 2,000 360 Climbing Orlando TRACON
08:48AM 28.6000 -81.2667 360° North 97 112 2,100 120 Climbing Orlando TRACON
08:49AM 28.6167 -81.2667 360° North 81 93 2,300 300 Climbing Orlando TRACON
08:50AM 28.6333 -81.3000 300° West 86 99 2,800 300 Climbing Orlando TRACON
08:51AM 28.6500 -81.3167 319° Northwest 91 105 3,000 120 Climbing Orlando TRACON
08:52AM 28.6667 -81.3333 319° Northwest 85 98 3,100  Climbing Orlando TRACON
08:53AM 28.6833 -81.3500 319° Northwest 90 104 3,000 -60 Descending Orlando TRACON
08:54AM 28.6833 -81.3833 270° West 90 104 3,000  Level Orlando TRACON
08:55AM 28.7000 -81.4000 319° Northwest 87 100 3,000 300 Level Orlando TRACON
08:56AM 28.7167 -81.4167 319° Northwest 80 92 3,600 540 Climbing Orlando TRACON
08:57AM 28.7333 -81.4333 319° Northwest 66 76 4,100 180 Climbing Orlando TRACON
08:58AM 28.7500 -81.4667 300° West 79 91 4,000 -60 Descending Orlando TRACON
08:59AM 28.7500 -81.4833 270° West 83 96 4,000  Level Orlando TRACON
09:00AM 28.7667 -81.5167 300° West 84 97 4,000  Level Orlando TRACON
09:02AM 28.7922 -81.5658 301° West 85 98 4,100 -60 Climbing Jacksonville Center
09:03AM 28.8047 -81.5894 301° West 87 100 3,900 -60 Descending Jacksonville Center
09:04AM 28.8197 -81.6153 304° West 88 101 4,000  Climbing Jacksonville Center
09:05AM 28.8325 -81.6364 305° West 82 94 4,000  Level Jacksonville Center
09:06AM 28.8472 -81.6600 305° West 86 99 4,000  Level Jacksonville Center
09:07AM 28.8581 -81.6811 300° West 86 99 4,000  Level Jacksonville Center
09:08AM 28.8728 -81.7047 305° West 90 104 4,000  Level Jacksonville Center
09:09AM 28.8875 -81.7283 305° West 90 104 4,000  Level Jacksonville Center
09:10AM 28.9003 -81.7494 305° West 90 104 4,000  Level Jacksonville Center
09:11AM 28.9172 -81.7778 304° West 90 104 4,000  Level Jacksonville Center
09:12AM 28.9383 -81.7942 326° Northwest 95 109 4,000  Level Jacksonville Center
09:13AM 28.9592 -81.8106 325° Northwest 93 107 4,000  Level Jacksonville Center
09:14AM 28.9822 -81.8219 337° Northwest 94 108 4,000  Level Jacksonville Center
09:15AM 29.0075 -81.8383 330° Northwest 92 106 4,000  Level Jacksonville Center
09:16AM 29.0286 -81.8525 330° Northwest 91 105 4,000  Level Jacksonville Center
09:17AM 29.0475 -81.8642 332° Northwest 92 106 4,000  Level Jacksonville Center
09:18AM 29.0725 -81.8781 334° Northwest 93 107 4,000  Level Jacksonville Center
09:19AM 29.0956 -81.8897 336° Northwest 94 108 4,000  Level Jacksonville Center
09:20AM 29.1208 -81.9014 338° Northwest 93 107 4,000  Level Jacksonville Center
09:21AM 29.1439 -81.9178 328° Northwest 92 106 4,000  Level Jacksonville Center
09:22AM 29.1669 -81.9319 332° Northwest 92 106 4,000  Level Jacksonville Center
09:23AM 29.1878 -81.9458 330° Northwest 90 104 4,000  Level Jacksonville Center
09:24AM 29.2089 -81.9625 325° Northwest 91 105 4,000  Level Jacksonville Center
09:25AM 29.2319 -81.9764 332° Northwest 92 106 4,000  Level Jacksonville Center
09:26AM 29.2550 -81.9906 332° Northwest 91 105 4,000  Level Jacksonville Center
09:27AM 29.2803 -82.0069 331° Northwest 94 108 4,000  Level Jacksonville Center
09:28AM 29.3011 -82.0211 329° Northwest 93 107 4,000  Level Jacksonville Center
09:29AM 29.3242 -82.0350 332° Northwest 93 107 4,000  Level Jacksonville Center
09:30AM 29.3453 -82.0492 330° Northwest 93 107 4,000  Level Jacksonville Center
09:31AM 29.3703 -82.0656 330° Northwest 91 105 4,000  Level Jacksonville Center
09:32AM 29.3911 -82.0775 333° Northwest 91 105 4,000  Level Jacksonville Center
09:33AM 29.4144 -82.0939 329° Northwest 94 108 4,000  Level Jacksonville Center
09:34AM 29.4375 -82.1103 328° Northwest 93 107 4,000  Level Jacksonville Center
09:35AM 29.4606 -82.1244 332° Northwest 94 108 4,000  Level Jacksonville Center
09:36AM 29.4833 -82.1386 332° Northwest 94 108 4,000  Level Jacksonville Center
09:37AM 29.5086 -82.1553 330° Northwest 95 109 4,000  Level Jacksonville Center
09:38AM 29.5317 -82.1717 328° Northwest 95 109 4,000  Level Jacksonville Center
09:39AM 29.5525 -82.1858 329° Northwest 94 108 4,000  Level Jacksonville Center
09:40AM 29.5756 -82.2000 332° Northwest 94 108 4,000  Level Jacksonville Center
09:41AM 29.5986 -82.2142 332° Northwest 95 109 4,000  Level Jacksonville Center
09:42AM 29.6217 -82.2283 332° Northwest 96 110 4,000  Level Jacksonville Center
09:43AM 29.6447 -82.2450 328° Northwest 96 110 4,000 -120 Level Jacksonville Center
09:44AM 29.6742 -82.2567 341° North 102 117 3,800 -60 Descending Jacksonville Center
09:46AM 29.6844 -82.2256 69° East 119 137 3,900  Climbing Jacksonville Center
09:46AM 29.6675 -82.1969 124° Southeast 119 137 3,900 -180 Level Jacksonville Center
09:48AM 29.6528 -82.1614 115° Southeast 126 145 3,600 -420 Descending Jacksonville Center
09:49AM 29.6294 -82.1281 129° Southeast 124 143 3,100 -480 Descending Jacksonville Center
09:50AM 29.6106 -82.0994 127° Southeast 115 132 2,700 -300 Descending Jacksonville Center
09:51AM 29.6294 -82.0897 24° Northeast 76 87 2,500 -360 Descending Jacksonville Center
09:52AM 29.6378 -82.1161 290° West 90 104 2,000 -420 Descending Jacksonville Center
09:53AM 29.6464 -82.1397 293° West 89 102 1,700 -240 Descending Jacksonville Center
09:54AM 29.6569 -82.1683 293° West 84 97 1,600 -240 Descending Jacksonville Center
09:55AM 29.6653 -82.1897 294° West 79 91 1,300 -480 Descending Jacksonville Center
09:56AM 29.6739 -82.2161 291° West 83 96 700 -420 Descending Jacksonville Center
09:57AM 29.6803 -82.2425 286° West 80 92 500 -180 Descending Jacksonville Center
09:59AM 29.6833 -82.2667 330° Northwest  Level FlightAware Approximate